createdAt,value
2022-08-20T00:04:49.922Z,22.96
2022-08-20T00:09:51.848Z,23.02
2022-08-20T00:14:53.787Z,23.03
2022-08-20T00:19:55.686Z,22.89
2022-08-20T00:24:57.572Z,22.80
2022-08-20T00:29:59.981Z,22.72
2022-08-20T00:35:01.867Z,22.85
2022-08-20T00:40:06.525Z,22.90
2022-08-20T00:45:27.109Z,22.97
2022-08-20T00:50:36.131Z,22.90
2022-08-20T00:55:40.023Z,22.79
2022-08-20T01:00:45.433Z,22.70
2022-08-20T01:05:50.925Z,22.73
2022-08-20T01:11:07.437Z,22.69
2022-08-20T01:16:18.879Z,22.59
2022-08-20T01:21:24.118Z,22.49
2022-08-20T01:26:38.480Z,22.45
2022-08-20T01:31:41.802Z,22.29
2022-08-20T01:36:53.572Z,22.18
2022-08-20T01:42:25.149Z,22.24
2022-08-20T01:47:31.506Z,22.18
2022-08-20T01:52:51.967Z,22.16
2022-08-20T01:57:54.552Z,22.06
2022-08-20T02:02:56.458Z,22.05
2022-08-20T02:07:58.623Z,22.05
2022-08-20T02:13:01.326Z,22.03
2022-08-20T02:18:08.068Z,22.00
2022-08-20T02:23:12.164Z,22.02
2022-08-20T02:28:17.176Z,22.01
2022-08-20T02:33:24.344Z,21.99
2022-08-20T02:38:26.564Z,21.83
2022-08-20T02:43:29.473Z,21.73
2022-08-20T02:48:33.619Z,21.68
2022-08-20T02:53:38.300Z,21.76
2022-08-20T02:58:40.515Z,21.82
2022-08-20T03:03:42.871Z,21.72
2022-08-20T03:08:44.832Z,21.60
2022-08-20T03:13:47.971Z,21.59
2022-08-20T03:18:52.180Z,21.65
2022-08-20T03:23:54.241Z,21.69
2022-08-20T03:28:56.216Z,21.74
2022-08-20T03:33:58.108Z,21.69
2022-08-20T03:39:04.449Z,21.70
2022-08-20T03:44:07.034Z,21.62
2022-08-20T03:49:09.025Z,21.60
2022-08-20T03:54:10.919Z,21.51
2022-08-20T03:59:12.880Z,21.54
2022-08-20T04:04:15.873Z,21.52
2022-08-20T04:09:17.985Z,21.50
2022-08-20T04:14:20.679Z,21.50
2022-08-20T04:19:22.917Z,21.40
2022-08-20T04:24:31.487Z,21.32
2022-08-20T04:29:36.658Z,21.30
2022-08-20T04:34:39.318Z,21.28
2022-08-20T04:39:41.253Z,21.38
2022-08-20T04:44:43.210Z,21.54
2022-08-20T04:49:45.085Z,21.50
2022-08-20T04:54:47.745Z,21.45
2022-08-20T04:59:51.863Z,21.45
2022-08-20T05:04:53.747Z,21.38
2022-08-20T05:09:55.669Z,21.40
2022-08-20T05:14:57.593Z,21.35
2022-08-20T05:20:00.573Z,21.28
2022-08-20T05:25:02.795Z,21.24
2022-08-20T05:30:07.913Z,21.18
2022-08-20T05:35:13.606Z,21.00
2022-08-20T05:40:16.482Z,20.98
2022-08-20T05:45:19.229Z,20.90
2022-08-20T05:50:23.482Z,20.81
2022-08-20T05:55:25.586Z,20.83
2022-08-20T06:00:29.712Z,20.95
2022-08-20T06:05:31.665Z,21.03
2022-08-20T06:10:34.801Z,21.06
2022-08-20T06:15:36.858Z,21.04
2022-08-20T06:20:39.026Z,20.91
2022-08-20T06:25:41.044Z,20.86
2022-08-20T06:30:43.013Z,20.96
2022-08-20T06:35:45.142Z,21.00
2022-08-20T06:40:47.244Z,21.00
2022-08-20T06:45:49.404Z,20.99
2022-08-20T06:50:51.408Z,20.92
2022-08-20T06:55:55.672Z,20.91
2022-08-20T07:00:58.768Z,20.92
2022-08-20T07:06:02.986Z,20.77
2022-08-20T07:11:04.922Z,20.81
2022-08-20T07:16:07.672Z,20.84
2022-08-20T07:21:09.835Z,20.92
2022-08-20T07:26:13.063Z,20.77
2022-08-20T07:31:35.046Z,20.65
2022-08-20T07:36:37.254Z,20.59
2022-08-20T07:41:39.227Z,20.53
2022-08-20T07:46:41.084Z,20.49
2022-08-20T07:51:43.037Z,20.48
2022-08-20T07:56:45.277Z,20.56
2022-08-20T08:01:47.182Z,20.57
2022-08-20T08:06:49.105Z,20.84
2022-08-20T08:11:51.859Z,20.96
2022-08-20T08:16:57.404Z,21.05
2022-08-20T08:21:59.380Z,21.05
2022-08-20T08:27:01.316Z,21.11
2022-08-20T08:32:05.097Z,21.15
2022-08-20T08:37:07.095Z,21.15
2022-08-20T08:42:44.107Z,21.26
2022-08-20T08:47:46.331Z,21.22
2022-08-20T08:52:53.108Z,21.33
2022-08-20T08:57:59.180Z,21.43
2022-08-20T09:03:10.862Z,21.51
2022-08-20T09:08:19.436Z,21.58
2022-08-20T09:13:21.398Z,21.52
2022-08-20T09:18:23.275Z,21.45
2022-08-20T09:23:25.192Z,21.42
2022-08-20T09:28:32.204Z,21.44
2022-08-20T09:33:36.892Z,21.23
2022-08-20T09:38:38.821Z,21.30
2022-08-20T09:43:40.864Z,21.23
2022-08-20T09:48:42.879Z,21.26
2022-08-20T09:53:46.250Z,21.31
2022-08-20T09:58:53.904Z,21.33
2022-08-20T10:03:55.797Z,21.36
2022-08-20T10:08:57.837Z,21.39
2022-08-20T10:13:59.795Z,21.38
2022-08-20T10:19:02.508Z,21.51
2022-08-20T10:24:04.588Z,21.53
2022-08-20T10:29:06.543Z,21.50
2022-08-20T10:34:08.592Z,21.60
2022-08-20T10:39:11.150Z,21.56
2022-08-20T10:44:13.064Z,21.80
2022-08-20T10:49:15.126Z,21.87
2022-08-20T10:54:17.041Z,21.77
2022-08-20T10:59:19.944Z,21.97
2022-08-20T11:04:21.811Z,21.96
2022-08-20T11:09:23.693Z,21.98
2022-08-20T11:14:25.619Z,22.04
2022-08-20T11:19:29.438Z,22.08
2022-08-20T11:24:31.302Z,22.11
2022-08-20T11:29:34.408Z,22.08
2022-08-20T11:34:36.640Z,22.05
2022-08-20T11:39:41.831Z,22.10
2022-08-20T11:44:44.336Z,22.10
2022-08-20T11:49:46.249Z,21.93
2022-08-20T11:54:52.945Z,21.88
2022-08-20T11:59:59.722Z,21.96
2022-08-20T12:05:01.724Z,22.02
2022-08-20T12:10:06.674Z,22.11
2022-08-20T12:15:10.492Z,22.15
2022-08-20T12:20:14.394Z,22.01
2022-08-20T12:25:16.562Z,22.01
2022-08-20T12:30:23.889Z,22.13
2022-08-20T12:35:27.059Z,22.25
2022-08-20T12:40:32.536Z,22.21
2022-08-20T12:45:37.081Z,22.16
2022-08-20T12:50:41.995Z,22.13
2022-08-20T12:55:44.504Z,22.06
2022-08-20T13:00:50.992Z,22.04
2022-08-20T13:05:53.192Z,22.10
2022-08-20T13:10:55.716Z,22.06
2022-08-20T13:15:58.133Z,22.06
2022-08-20T13:21:00.695Z,22.10
2022-08-20T13:26:03.093Z,22.16
2022-08-20T13:31:05.455Z,22.26
2022-08-20T13:36:07.756Z,22.31
2022-08-20T13:41:09.827Z,22.38
2022-08-20T13:46:12.431Z,22.39
2022-08-20T13:51:14.950Z,22.44
2022-08-20T13:56:22.398Z,22.37
2022-08-20T14:01:24.323Z,22.47
2022-08-20T14:06:26.429Z,22.49
2022-08-20T14:11:28.371Z,22.52
2022-08-20T14:16:35.651Z,22.58
2022-08-20T14:21:38.550Z,22.54
2022-08-20T14:26:40.541Z,22.44
2022-08-20T14:31:42.437Z,22.50
2022-08-20T14:36:44.340Z,22.46
2022-08-20T14:41:49.692Z,22.14
2022-08-20T14:46:51.620Z,21.98
2022-08-20T14:51:53.525Z,21.90
2022-08-20T14:57:01.914Z,21.88
2022-08-20T15:02:06.425Z,21.95
2022-08-20T15:07:25.983Z,21.93
2022-08-20T15:12:28.965Z,21.95
2022-08-20T15:17:31.210Z,21.99
2022-08-20T15:22:33.345Z,22.09
2022-08-20T15:27:37.081Z,22.21
2022-08-20T15:32:39.543Z,22.21
2022-08-20T15:37:44.116Z,22.21
2022-08-20T15:42:46.776Z,22.22
2022-08-20T15:47:48.734Z,22.24
2022-08-20T15:52:51.113Z,22.23
2022-08-20T15:58:04.630Z,22.29
2022-08-20T16:03:39.384Z,22.57
2022-08-20T16:09:12.647Z,22.71
2022-08-20T16:14:16.191Z,22.72
2022-08-20T16:19:26.339Z,22.65
2022-08-20T16:24:28.665Z,22.43
2022-08-20T16:29:42.826Z,22.51
2022-08-20T16:34:55.879Z,22.47
2022-08-20T16:40:19.735Z,22.46
2022-08-20T16:45:29.354Z,22.37
2022-08-20T16:50:46.222Z,22.40
2022-08-20T16:55:48.579Z,22.32
2022-08-20T17:01:09.958Z,22.29
2022-08-20T17:06:46.913Z,22.30
2022-08-20T17:11:49.839Z,22.26
2022-08-20T17:16:53.104Z,22.27
2022-08-20T17:21:56.277Z,22.24
2022-08-20T17:27:03.013Z,22.28
2022-08-20T17:32:23.442Z,22.33
2022-08-20T17:37:29.373Z,22.32
2022-08-20T17:42:52.839Z,22.36
2022-08-20T17:47:59.028Z,22.35
2022-08-20T17:53:21.077Z,22.35
2022-08-20T17:58:32.859Z,22.32
2022-08-20T18:03:34.987Z,22.30
2022-08-20T18:08:49.407Z,22.32
2022-08-20T18:14:17.121Z,22.38
2022-08-20T18:19:43.899Z,22.38
2022-08-20T18:24:46.105Z,22.39
2022-08-20T18:29:55.624Z,22.41
2022-08-20T18:35:35.393Z,22.43
2022-08-20T18:40:38.938Z,22.26
2022-08-20T18:45:41.782Z,22.18
2022-08-20T18:50:50.527Z,22.14
2022-08-20T18:56:09.177Z,22.19
2022-08-20T19:01:13.860Z,22.21
2022-08-20T19:06:15.879Z,22.19
2022-08-20T19:11:39.761Z,22.15
2022-08-20T19:16:51.192Z,22.13
2022-08-20T19:21:56.441Z,22.17
2022-08-20T19:27:04.983Z,22.24
2022-08-20T19:32:09.382Z,22.22
2022-08-20T19:37:35.783Z,22.24
2022-08-20T19:42:43.168Z,22.20
2022-08-20T19:47:54.971Z,22.16
2022-08-20T19:53:02.082Z,22.02
2022-08-20T19:58:16.882Z,22.07
2022-08-20T20:03:32.137Z,22.00
2022-08-20T20:08:45.574Z,21.93
2022-08-20T20:13:47.989Z,21.81
2022-08-20T20:19:09.068Z,21.77
2022-08-20T20:24:24.147Z,21.84
2022-08-20T20:29:34.458Z,21.80
2022-08-20T20:34:54.842Z,21.80
2022-08-20T20:40:19.234Z,21.84
2022-08-20T20:45:23.330Z,21.74
2022-08-20T20:50:36.935Z,21.67
2022-08-20T20:55:39.026Z,21.64
2022-08-20T21:00:41.097Z,21.59
2022-08-20T21:05:43.062Z,21.57
2022-08-20T21:10:44.897Z,21.61
2022-08-20T21:15:46.813Z,21.62
2022-08-20T21:20:50.868Z,21.57
2022-08-20T21:25:53.345Z,21.52
2022-08-20T21:30:58.293Z,21.53
2022-08-20T21:36:00.499Z,21.43
2022-08-20T21:41:02.684Z,21.44
2022-08-20T21:46:04.803Z,21.52
2022-08-20T21:51:07.096Z,21.55
2022-08-20T21:56:10.201Z,21.48
2022-08-20T22:01:12.883Z,21.54
2022-08-20T22:06:14.971Z,21.54
2022-08-20T22:11:17.566Z,21.41
2022-08-20T22:16:21.402Z,21.45
2022-08-20T22:21:26.015Z,21.53
2022-08-20T22:26:28.332Z,21.45
2022-08-20T22:31:32.404Z,21.40
2022-08-20T22:36:34.347Z,21.41
2022-08-20T22:41:39.436Z,21.39
2022-08-20T22:46:47.363Z,21.39
2022-08-20T22:51:50.894Z,21.42
2022-08-20T22:56:55.275Z,21.42
2022-08-20T23:01:57.557Z,21.47
2022-08-20T23:07:00.667Z,21.44
2022-08-20T23:12:02.630Z,21.47
2022-08-20T23:17:13.904Z,21.48
2022-08-20T23:22:16.728Z,21.41
2022-08-20T23:27:21.060Z,21.38
2022-08-20T23:32:22.989Z,21.41
2022-08-20T23:37:25.142Z,21.30
2022-08-20T23:42:27.013Z,21.22
2022-08-20T23:47:29.065Z,21.28
2022-08-20T23:52:31.021Z,21.20
2022-08-20T23:57:33.208Z,21.22
